sensor_id;sensor_type;location;lat;lon;timestamp;P1;durP1;ratioP1;P2;durP2;ratioP2
59416;SDS011;45222;52.458;20.914;2022-12-07T00:03:02;36.80;;;31.00;;
59416;SDS011;45222;52.458;20.914;2022-12-07T00:06:51;34.10;;;18.10;;
59416;SDS011;45222;52.458;20.914;2022-12-07T00:10:39;39.50;;;18.40;;
59416;SDS011;45222;52.458;20.914;2022-12-07T00:14:26;32.80;;;16.90;;
59416;SDS011;45222;52.458;20.914;2022-12-07T00:18:13;33.80;;;17.40;;
59416;SDS011;45222;52.458;20.914;2022-12-07T00:22:01;44.50;;;33.60;;
59416;SDS011;45222;52.458;20.914;2022-12-07T00:25:48;37.70;;;17.10;;
59416;SDS011;45222;52.458;20.914;2022-12-07T00:29:35;31.60;;;16.10;;
59416;SDS011;45222;52.458;20.914;2022-12-07T00:33:22;30.60;;;15.90;;
59416;SDS011;45222;52.458;20.914;2022-12-07T00:37:09;48.70;;;35.10;;
59416;SDS011;45222;52.458;20.914;2022-12-07T00:40:58;38.00;;;17.30;;
59416;SDS011;45222;52.458;20.914;2022-12-07T00:44:46;40.50;;;20.50;;
59416;SDS011;45222;52.458;20.914;2022-12-07T00:48:33;37.20;;;28.20;;
59416;SDS011;45222;52.458;20.914;2022-12-07T00:52:21;34.20;;;17.90;;
59416;SDS011;45222;52.458;20.914;2022-12-07T00:56:09;38.50;;;16.70;;
59416;SDS011;45222;52.458;20.914;2022-12-07T00:59:57;43.00;;;21.20;;
59416;SDS011;45222;52.458;20.914;2022-12-07T01:03:45;46.90;;;34.80;;
59416;SDS011;45222;52.458;20.914;2022-12-07T01:07:32;38.20;;;18.60;;
59416;SDS011;45222;52.458;20.914;2022-12-07T01:11:20;37.50;;;18.50;;
59416;SDS011;45222;52.458;20.914;2022-12-07T01:15:09;35.90;;;27.50;;
59416;SDS011;45222;52.458;20.914;2022-12-07T01:18:57;32.80;;;15.60;;
59416;SDS011;45222;52.458;20.914;2022-12-07T01:22:45;38.90;;;28.80;;
59416;SDS011;45222;52.458;20.914;2022-12-07T01:26:32;36.50;;;16.60;;
59416;SDS011;45222;52.458;20.914;2022-12-07T01:30:19;42.80;;;30.50;;
59416;SDS011;45222;52.458;20.914;2022-12-07T01:34:07;39.90;;;26.60;;
59416;SDS011;45222;52.458;20.914;2022-12-07T01:37:54;34.20;;;14.90;;
59416;SDS011;45222;52.458;20.914;2022-12-07T01:41:42;31.40;;;16.40;;
59416;SDS011;45222;52.458;20.914;2022-12-07T01:45:37;37.70;;;24.60;;
59416;SDS011;45222;52.458;20.914;2022-12-07T01:49:27;35.60;;;24.60;;
59416;SDS011;45222;52.458;20.914;2022-12-07T01:53:18;33.00;;;24.40;;
59416;SDS011;45222;52.458;20.914;2022-12-07T01:57:07;29.10;;;21.80;;
59416;SDS011;45222;52.458;20.914;2022-12-07T02:00:55;30.30;;;21.20;;
59416;SDS011;45222;52.458;20.914;2022-12-07T02:04:43;27.40;;;12.50;;
59416;SDS011;45222;52.458;20.914;2022-12-07T02:08:31;26.10;;;12.00;;
59416;SDS011;45222;52.458;20.914;2022-12-07T02:12:19;33.10;;;22.60;;
59416;SDS011;45222;52.458;20.914;2022-12-07T02:16:11;22.00;;;11.70;;
59416;SDS011;45222;52.458;20.914;2022-12-07T02:20:16;23.30;;;11.80;;
59416;SDS011;45222;52.458;20.914;2022-12-07T02:24:22;23.30;;;11.60;;
59416;SDS011;45222;52.458;20.914;2022-12-07T02:28:26;24.00;;;11.70;;
59416;SDS011;45222;52.458;20.914;2022-12-07T02:32:18;24.90;;;20.00;;
59416;SDS011;45222;52.458;20.914;2022-12-07T02:36:14;21.70;;;11.80;;
59416;SDS011;45222;52.458;20.914;2022-12-07T02:40:11;23.70;;;19.60;;
59416;SDS011;45222;52.458;20.914;2022-12-07T02:44:04;23.70;;;19.80;;
59416;SDS011;45222;52.458;20.914;2022-12-07T02:47:57;24.50;;;11.70;;
59416;SDS011;45222;52.458;20.914;2022-12-07T02:51:46;25.00;;;20.30;;
59416;SDS011;45222;52.458;20.914;2022-12-07T02:55:34;23.50;;;18.80;;
59416;SDS011;45222;52.458;20.914;2022-12-07T02:59:29;26.90;;;18.40;;
59416;SDS011;45222;52.458;20.914;2022-12-07T03:03:32;24.70;;;11.10;;
59416;SDS011;45222;52.458;20.914;2022-12-07T03:07:24;25.40;;;17.10;;
59416;SDS011;45222;52.458;20.914;2022-12-07T03:11:20;23.60;;;16.90;;
59416;SDS011;45222;52.458;20.914;2022-12-07T03:15:14;21.80;;;9.50;;
59416;SDS011;45222;52.458;20.914;2022-12-07T03:19:08;17.80;;;8.80;;
59416;SDS011;45222;52.458;20.914;2022-12-07T03:22:58;18.40;;;9.00;;
59416;SDS011;45222;52.458;20.914;2022-12-07T03:26:49;20.40;;;15.60;;
59416;SDS011;45222;52.458;20.914;2022-12-07T03:30:42;20.40;;;9.70;;
59416;SDS011;45222;52.458;20.914;2022-12-07T03:34:34;19.20;;;10.70;;
59416;SDS011;45222;52.458;20.914;2022-12-07T03:38:27;17.50;;;13.40;;
59416;SDS011;45222;52.458;20.914;2022-12-07T03:42:18;19.20;;;9.20;;
59416;SDS011;45222;52.458;20.914;2022-12-07T03:46:09;18.40;;;8.60;;
59416;SDS011;45222;52.458;20.914;2022-12-07T03:50:06;15.10;;;7.80;;
59416;SDS011;45222;52.458;20.914;2022-12-07T03:54:00;14.30;;;7.30;;
59416;SDS011;45222;52.458;20.914;2022-12-07T03:57:58;15.90;;;12.10;;
59416;SDS011;45222;52.458;20.914;2022-12-07T04:01:52;14.40;;;7.20;;
59416;SDS011;45222;52.458;20.914;2022-12-07T04:05:41;17.50;;;8.60;;
59416;SDS011;45222;52.458;20.914;2022-12-07T04:09:30;14.90;;;11.40;;
59416;SDS011;45222;52.458;20.914;2022-12-07T04:13:17;12.80;;;6.90;;
59416;SDS011;45222;52.458;20.914;2022-12-07T04:17:04;15.00;;;11.70;;
59416;SDS011;45222;52.458;20.914;2022-12-07T04:20:52;18.30;;;13.00;;
59416;SDS011;45222;52.458;20.914;2022-12-07T04:24:39;20.20;;;8.00;;
59416;SDS011;45222;52.458;20.914;2022-12-07T04:28:26;15.10;;;11.10;;
59416;SDS011;45222;52.458;20.914;2022-12-07T04:32:14;14.10;;;10.10;;
59416;SDS011;45222;52.458;20.914;2022-12-07T04:36:01;13.80;;;6.50;;
59416;SDS011;45222;52.458;20.914;2022-12-07T04:39:49;13.60;;;5.80;;
59416;SDS011;45222;52.458;20.914;2022-12-07T04:43:36;14.40;;;10.70;;
59416;SDS011;45222;52.458;20.914;2022-12-07T04:47:23;13.40;;;9.40;;
59416;SDS011;45222;52.458;20.914;2022-12-07T04:51:11;13.60;;;6.10;;
59416;SDS011;45222;52.458;20.914;2022-12-07T04:54:59;14.50;;;6.50;;
59416;SDS011;45222;52.458;20.914;2022-12-07T04:58:47;11.90;;;8.30;;
59416;SDS011;45222;52.458;20.914;2022-12-07T05:02:34;12.20;;;5.30;;
59416;SDS011;45222;52.458;20.914;2022-12-07T05:06:22;12.20;;;5.30;;
59416;SDS011;45222;52.458;20.914;2022-12-07T05:10:10;14.10;;;10.50;;
59416;SDS011;45222;52.458;20.914;2022-12-07T05:13:57;17.20;;;6.20;;
59416;SDS011;45222;52.458;20.914;2022-12-07T05:17:45;17.40;;;11.80;;
59416;SDS011;45222;52.458;20.914;2022-12-07T05:21:32;16.50;;;6.40;;
59416;SDS011;45222;52.458;20.914;2022-12-07T05:25:20;13.90;;;9.10;;
59416;SDS011;45222;52.458;20.914;2022-12-07T05:29:07;12.30;;;8.80;;
59416;SDS011;45222;52.458;20.914;2022-12-07T05:32:57;9.60;;;4.60;;
59416;SDS011;45222;52.458;20.914;2022-12-07T05:36:44;10.80;;;4.60;;
59416;SDS011;45222;52.458;20.914;2022-12-07T05:40:32;9.10;;;4.00;;
59416;SDS011;45222;52.458;20.914;2022-12-07T05:44:19;10.50;;;4.70;;
59416;SDS011;45222;52.458;20.914;2022-12-07T05:48:07;9.90;;;7.10;;
59416;SDS011;45222;52.458;20.914;2022-12-07T05:51:54;10.10;;;3.90;;
59416;SDS011;45222;52.458;20.914;2022-12-07T05:55:41;9.90;;;5.00;;
59416;SDS011;45222;52.458;20.914;2022-12-07T05:59:29;12.50;;;5.20;;
59416;SDS011;45222;52.458;20.914;2022-12-07T06:03:20;9.90;;;6.80;;
59416;SDS011;45222;52.458;20.914;2022-12-07T06:07:09;10.70;;;7.50;;
59416;SDS011;45222;52.458;20.914;2022-12-07T06:10:58;10.00;;;7.80;;
59416;SDS011;45222;52.458;20.914;2022-12-07T06:15:00;9.80;;;4.70;;
59416;SDS011;45222;52.458;20.914;2022-12-07T06:18:47;11.00;;;7.40;;
59416;SDS011;45222;52.458;20.914;2022-12-07T06:22:34;11.30;;;7.80;;
59416;SDS011;45222;52.458;20.914;2022-12-07T06:26:23;13.10;;;5.60;;
59416;SDS011;45222;52.458;20.914;2022-12-07T06:30:19;15.60;;;10.90;;
59416;SDS011;45222;52.458;20.914;2022-12-07T06:34:08;12.40;;;6.20;;
59416;SDS011;45222;52.458;20.914;2022-12-07T06:37:57;14.40;;;11.30;;
59416;SDS011;45222;52.458;20.914;2022-12-07T06:41:44;14.50;;;6.50;;
59416;SDS011;45222;52.458;20.914;2022-12-07T06:45:32;14.30;;;6.00;;
59416;SDS011;45222;52.458;20.914;2022-12-07T06:49:19;13.70;;;10.30;;
59416;SDS011;45222;52.458;20.914;2022-12-07T06:53:07;13.70;;;6.20;;
59416;SDS011;45222;52.458;20.914;2022-12-07T06:56:54;15.60;;;5.90;;
59416;SDS011;45222;52.458;20.914;2022-12-07T07:00:42;12.10;;;5.60;;
59416;SDS011;45222;52.458;20.914;2022-12-07T07:04:29;11.90;;;5.20;;
59416;SDS011;45222;52.458;20.914;2022-12-07T07:08:17;12.60;;;9.90;;
59416;SDS011;45222;52.458;20.914;2022-12-07T07:12:04;13.60;;;6.00;;
59416;SDS011;45222;52.458;20.914;2022-12-07T07:15:51;14.40;;;6.10;;
59416;SDS011;45222;52.458;20.914;2022-12-07T07:19:39;14.20;;;6.40;;
59416;SDS011;45222;52.458;20.914;2022-12-07T07:23:26;11.30;;;5.50;;
59416;SDS011;45222;52.458;20.914;2022-12-07T07:27:13;11.70;;;5.80;;
59416;SDS011;45222;52.458;20.914;2022-12-07T07:31:01;9.60;;;4.80;;
59416;SDS011;45222;52.458;20.914;2022-12-07T07:34:49;11.20;;;8.40;;
59416;SDS011;45222;52.458;20.914;2022-12-07T07:38:36;10.00;;;4.50;;
59416;SDS011;45222;52.458;20.914;2022-12-07T07:42:24;10.80;;;4.20;;
59416;SDS011;45222;52.458;20.914;2022-12-07T07:46:11;11.20;;;4.10;;
59416;SDS011;45222;52.458;20.914;2022-12-07T07:49:59;11.80;;;5.20;;
59416;SDS011;45222;52.458;20.914;2022-12-07T07:53:46;11.80;;;5.60;;
59416;SDS011;45222;52.458;20.914;2022-12-07T07:57:33;11.40;;;5.60;;
59416;SDS011;45222;52.458;20.914;2022-12-07T08:01:21;9.10;;;3.70;;
59416;SDS011;45222;52.458;20.914;2022-12-07T08:05:08;10.70;;;7.80;;
59416;SDS011;45222;52.458;20.914;2022-12-07T08:08:56;10.70;;;8.20;;
59416;SDS011;45222;52.458;20.914;2022-12-07T08:12:44;8.00;;;3.80;;
59416;SDS011;45222;52.458;20.914;2022-12-07T08:16:49;10.30;;;8.20;;
59416;SDS011;45222;52.458;20.914;2022-12-07T08:20:37;9.00;;;3.80;;
59416;SDS011;45222;52.458;20.914;2022-12-07T08:24:24;11.20;;;8.20;;
59416;SDS011;45222;52.458;20.914;2022-12-07T08:28:12;11.60;;;8.60;;
59416;SDS011;45222;52.458;20.914;2022-12-07T08:31:59;10.10;;;5.10;;
59416;SDS011;45222;52.458;20.914;2022-12-07T08:35:47;11.50;;;4.80;;
59416;SDS011;45222;52.458;20.914;2022-12-07T08:39:34;12.40;;;9.80;;
59416;SDS011;45222;52.458;20.914;2022-12-07T08:43:21;14.70;;;10.70;;
59416;SDS011;45222;52.458;20.914;2022-12-07T08:47:09;14.70;;;6.10;;
59416;SDS011;45222;52.458;20.914;2022-12-07T08:50:57;11.70;;;4.90;;
59416;SDS011;45222;52.458;20.914;2022-12-07T08:54:48;13.00;;;9.80;;
59416;SDS011;45222;52.458;20.914;2022-12-07T08:58:37;14.60;;;6.50;;
59416;SDS011;45222;52.458;20.914;2022-12-07T09:02:26;12.80;;;5.60;;
59416;SDS011;45222;52.458;20.914;2022-12-07T09:06:14;13.20;;;5.60;;
59416;SDS011;45222;52.458;20.914;2022-12-07T09:10:01;15.90;;;11.10;;
59416;SDS011;45222;52.458;20.914;2022-12-07T09:13:50;15.30;;;5.90;;
59416;SDS011;45222;52.458;20.914;2022-12-07T09:17:37;14.60;;;10.40;;
59416;SDS011;45222;52.458;20.914;2022-12-07T09:21:24;15.70;;;11.30;;
59416;SDS011;45222;52.458;20.914;2022-12-07T09:25:12;14.90;;;12.10;;
59416;SDS011;45222;52.458;20.914;2022-12-07T09:29:00;14.90;;;11.10;;
59416;SDS011;45222;52.458;20.914;2022-12-07T09:32:48;17.10;;;6.20;;
59416;SDS011;45222;52.458;20.914;2022-12-07T09:36:40;16.10;;;6.80;;
59416;SDS011;45222;52.458;20.914;2022-12-07T09:40:28;17.80;;;12.60;;
59416;SDS011;45222;52.458;20.914;2022-12-07T09:44:17;16.60;;;6.40;;
59416;SDS011;45222;52.458;20.914;2022-12-07T09:48:09;15.30;;;12.10;;
59416;SDS011;45222;52.458;20.914;2022-12-07T09:52:15;12.80;;;5.80;;
59416;SDS011;45222;52.458;20.914;2022-12-07T09:56:08;16.90;;;6.80;;
59416;SDS011;45222;52.458;20.914;2022-12-07T09:59:59;16.20;;;11.00;;
59416;SDS011;45222;52.458;20.914;2022-12-07T10:03:50;15.40;;;10.30;;
59416;SDS011;45222;52.458;20.914;2022-12-07T10:07:39;16.80;;;10.90;;
59416;SDS011;45222;52.458;20.914;2022-12-07T10:11:27;15.60;;;11.10;;
59416;SDS011;45222;52.458;20.914;2022-12-07T10:15:14;15.80;;;6.00;;
59416;SDS011;45222;52.458;20.914;2022-12-07T10:19:16;15.50;;;10.10;;
59416;SDS011;45222;52.458;20.914;2022-12-07T10:23:13;15.10;;;10.50;;
59416;SDS011;45222;52.458;20.914;2022-12-07T10:27:02;15.70;;;10.50;;
59416;SDS011;45222;52.458;20.914;2022-12-07T10:30:51;14.40;;;9.40;;
59416;SDS011;45222;52.458;20.914;2022-12-07T10:34:42;15.90;;;10.00;;
59416;SDS011;45222;52.458;20.914;2022-12-07T10:38:30;13.50;;;5.50;;
59416;SDS011;45222;52.458;20.914;2022-12-07T10:42:18;14.40;;;9.60;;
59416;SDS011;45222;52.458;20.914;2022-12-07T10:50:29;16.90;;;10.80;;
59416;SDS011;45222;52.458;20.914;2022-12-07T10:54:28;15.10;;;9.80;;
59416;SDS011;45222;52.458;20.914;2022-12-07T10:58:31;14.70;;;10.20;;
59416;SDS011;45222;52.458;20.914;2022-12-07T11:02:30;13.80;;;4.90;;
59416;SDS011;45222;52.458;20.914;2022-12-07T11:06:32;13.60;;;5.40;;
59416;SDS011;45222;52.458;20.914;2022-12-07T11:10:26;14.50;;;9.70;;
59416;SDS011;45222;52.458;20.914;2022-12-07T11:14:25;13.90;;;9.50;;
59416;SDS011;45222;52.458;20.914;2022-12-07T11:18:24;13.40;;;9.80;;
59416;SDS011;45222;52.458;20.914;2022-12-07T11:22:16;12.10;;;5.50;;
59416;SDS011;45222;52.458;20.914;2022-12-07T11:26:10;13.70;;;5.50;;
59416;SDS011;45222;52.458;20.914;2022-12-07T11:30:12;13.90;;;6.40;;
59416;SDS011;45222;52.458;20.914;2022-12-07T11:34:06;13.20;;;9.50;;
59416;SDS011;45222;52.458;20.914;2022-12-07T11:37:59;14.20;;;10.40;;
59416;SDS011;45222;52.458;20.914;2022-12-07T11:41:55;12.60;;;5.40;;
59416;SDS011;45222;52.458;20.914;2022-12-07T11:45:54;13.70;;;5.90;;
59416;SDS011;45222;52.458;20.914;2022-12-07T11:49:47;11.80;;;9.50;;
59416;SDS011;45222;52.458;20.914;2022-12-07T11:53:42;10.30;;;5.10;;
59416;SDS011;45222;52.458;20.914;2022-12-07T11:57:33;12.70;;;10.00;;
59416;SDS011;45222;52.458;20.914;2022-12-07T12:01:31;13.50;;;5.30;;
59416;SDS011;45222;52.458;20.914;2022-12-07T12:05:29;12.70;;;9.20;;
59416;SDS011;45222;52.458;20.914;2022-12-07T12:09:17;12.60;;;9.80;;
59416;SDS011;45222;52.458;20.914;2022-12-07T12:13:36;13.90;;;6.20;;
59416;SDS011;45222;52.458;20.914;2022-12-07T12:21:38;13.60;;;11.10;;
59416;SDS011;45222;52.458;20.914;2022-12-07T12:25:27;15.00;;;12.30;;
59416;SDS011;45222;52.458;20.914;2022-12-07T12:29:21;15.30;;;11.80;;
59416;SDS011;45222;52.458;20.914;2022-12-07T12:33:14;15.10;;;12.60;;
59416;SDS011;45222;52.458;20.914;2022-12-07T12:37:17;14.70;;;12.20;;
59416;SDS011;45222;52.458;20.914;2022-12-07T12:45:52;13.80;;;11.40;;
59416;SDS011;45222;52.458;20.914;2022-12-07T12:50:19;16.20;;;13.60;;
59416;SDS011;45222;52.458;20.914;2022-12-07T12:54:10;12.70;;;5.90;;
59416;SDS011;45222;52.458;20.914;2022-12-07T13:02:31;12.60;;;10.40;;
59416;SDS011;45222;52.458;20.914;2022-12-07T13:06:30;12.60;;;5.90;;
59416;SDS011;45222;52.458;20.914;2022-12-07T13:10:24;13.50;;;10.30;;
59416;SDS011;45222;52.458;20.914;2022-12-07T13:18:36;12.50;;;5.70;;
59416;SDS011;45222;52.458;20.914;2022-12-07T13:26:35;12.90;;;10.40;;
59416;SDS011;45222;52.458;20.914;2022-12-07T13:30:25;11.90;;;5.60;;
59416;SDS011;45222;52.458;20.914;2022-12-07T13:34:31;13.00;;;10.20;;
59416;SDS011;45222;52.458;20.914;2022-12-07T13:38:25;13.20;;;5.70;;
59416;SDS011;45222;52.458;20.914;2022-12-07T13:42:19;11.60;;;9.10;;
59416;SDS011;45222;52.458;20.914;2022-12-07T13:46:10;11.70;;;9.30;;
59416;SDS011;45222;52.458;20.914;2022-12-07T13:50:02;12.80;;;10.50;;
59416;SDS011;45222;52.458;20.914;2022-12-07T13:54:10;13.90;;;10.60;;
59416;SDS011;45222;52.458;20.914;2022-12-07T13:57:59;12.00;;;5.70;;
59416;SDS011;45222;52.458;20.914;2022-12-07T14:01:47;14.40;;;11.30;;
59416;SDS011;45222;52.458;20.914;2022-12-07T14:05:36;21.20;;;9.80;;
59416;SDS011;45222;52.458;20.914;2022-12-07T14:09:25;14.30;;;11.40;;
59416;SDS011;45222;52.458;20.914;2022-12-07T14:17:15;12.70;;;5.70;;
59416;SDS011;45222;52.458;20.914;2022-12-07T14:21:05;12.30;;;10.10;;
59416;SDS011;45222;52.458;20.914;2022-12-07T14:25:01;13.30;;;11.40;;
59416;SDS011;45222;52.458;20.914;2022-12-07T14:33:22;13.30;;;11.50;;
59416;SDS011;45222;52.458;20.914;2022-12-07T14:37:11;15.30;;;12.60;;
59416;SDS011;45222;52.458;20.914;2022-12-07T14:40:58;14.50;;;12.10;;
59416;SDS011;45222;52.458;20.914;2022-12-07T14:44:59;11.80;;;6.30;;
59416;SDS011;45222;52.458;20.914;2022-12-07T14:48:47;12.60;;;6.10;;
59416;SDS011;45222;52.458;20.914;2022-12-07T14:52:35;13.80;;;11.90;;
59416;SDS011;45222;52.458;20.914;2022-12-07T14:56:22;12.80;;;6.10;;
59416;SDS011;45222;52.458;20.914;2022-12-07T15:00:12;12.50;;;10.60;;
59416;SDS011;45222;52.458;20.914;2022-12-07T15:04:02;12.80;;;6.00;;
59416;SDS011;45222;52.458;20.914;2022-12-07T15:07:50;15.80;;;13.90;;
59416;SDS011;45222;52.458;20.914;2022-12-07T15:11:38;17.70;;;7.50;;
59416;SDS011;45222;52.458;20.914;2022-12-07T15:15:25;15.00;;;12.30;;
59416;SDS011;45222;52.458;20.914;2022-12-07T15:19:14;16.60;;;13.60;;
59416;SDS011;45222;52.458;20.914;2022-12-07T15:23:04;12.90;;;5.70;;
59416;SDS011;45222;52.458;20.914;2022-12-07T15:26:51;15.70;;;7.10;;
59416;SDS011;45222;52.458;20.914;2022-12-07T15:30:39;19.60;;;9.00;;
59416;SDS011;45222;52.458;20.914;2022-12-07T15:39:36;15.50;;;6.40;;
59416;SDS011;45222;52.458;20.914;2022-12-07T15:43:24;14.80;;;12.60;;
59416;SDS011;45222;52.458;20.914;2022-12-07T15:47:29;14.20;;;11.80;;
59416;SDS011;45222;52.458;20.914;2022-12-07T15:51:17;14.40;;;6.30;;
59416;SDS011;45222;52.458;20.914;2022-12-07T15:55:06;16.70;;;14.80;;
59416;SDS011;45222;52.458;20.914;2022-12-07T15:58:56;16.60;;;8.70;;
59416;SDS011;45222;52.458;20.914;2022-12-07T16:02:44;16.60;;;14.50;;
59416;SDS011;45222;52.458;20.914;2022-12-07T16:06:33;18.00;;;14.80;;
59416;SDS011;45222;52.458;20.914;2022-12-07T16:10:20;17.30;;;7.30;;
59416;SDS011;45222;52.458;20.914;2022-12-07T16:14:08;14.40;;;5.90;;
59416;SDS011;45222;52.458;20.914;2022-12-07T16:17:55;20.90;;;18.60;;
59416;SDS011;45222;52.458;20.914;2022-12-07T16:21:43;18.90;;;15.50;;
59416;SDS011;45222;52.458;20.914;2022-12-07T16:25:33;16.80;;;14.80;;
59416;SDS011;45222;52.458;20.914;2022-12-07T16:29:21;18.50;;;15.40;;
59416;SDS011;45222;52.458;20.914;2022-12-07T16:33:10;16.10;;;8.60;;
59416;SDS011;45222;52.458;20.914;2022-12-07T16:36:57;17.30;;;9.00;;
59416;SDS011;45222;52.458;20.914;2022-12-07T16:40:44;22.10;;;9.30;;
59416;SDS011;45222;52.458;20.914;2022-12-07T16:48:20;16.60;;;8.30;;
59416;SDS011;45222;52.458;20.914;2022-12-07T16:52:12;20.40;;;17.00;;
59416;SDS011;45222;52.458;20.914;2022-12-07T16:56:07;18.10;;;8.50;;
59416;SDS011;45222;52.458;20.914;2022-12-07T16:59:59;23.20;;;18.80;;
59416;SDS011;45222;52.458;20.914;2022-12-07T17:03:48;18.30;;;9.00;;
59416;SDS011;45222;52.458;20.914;2022-12-07T17:07:36;20.90;;;10.30;;
59416;SDS011;45222;52.458;20.914;2022-12-07T17:11:24;18.80;;;16.10;;
59416;SDS011;45222;52.458;20.914;2022-12-07T17:15:12;20.80;;;10.50;;
59416;SDS011;45222;52.458;20.914;2022-12-07T17:19:05;20.50;;;18.00;;
59416;SDS011;45222;52.458;20.914;2022-12-07T17:22:54;20.60;;;9.20;;
59416;SDS011;45222;52.458;20.914;2022-12-07T17:26:42;21.30;;;9.90;;
59416;SDS011;45222;52.458;20.914;2022-12-07T17:30:30;19.40;;;9.40;;
59416;SDS011;45222;52.458;20.914;2022-12-07T17:34:18;30.90;;;24.10;;
59416;SDS011;45222;52.458;20.914;2022-12-07T17:38:05;20.70;;;18.50;;
59416;SDS011;45222;52.458;20.914;2022-12-07T17:46:32;16.70;;;8.60;;
59416;SDS011;45222;52.458;20.914;2022-12-07T17:50:17;14.50;;;6.90;;
59416;SDS011;45222;52.458;20.914;2022-12-07T17:54:22;19.00;;;15.30;;
59416;SDS011;45222;52.458;20.914;2022-12-07T17:58:07;20.90;;;17.30;;
59416;SDS011;45222;52.458;20.914;2022-12-07T18:01:52;19.90;;;17.60;;
59416;SDS011;45222;52.458;20.914;2022-12-07T18:05:36;17.90;;;15.10;;
59416;SDS011;45222;52.458;20.914;2022-12-07T18:09:21;16.90;;;14.90;;
59416;SDS011;45222;52.458;20.914;2022-12-07T18:13:06;16.80;;;7.90;;
59416;SDS011;45222;52.458;20.914;2022-12-07T18:17:09;17.80;;;15.90;;
59416;SDS011;45222;52.458;20.914;2022-12-07T18:20:54;16.80;;;8.60;;
59416;SDS011;45222;52.458;20.914;2022-12-07T18:24:39;25.90;;;12.70;;
59416;SDS011;45222;52.458;20.914;2022-12-07T18:28:24;37.00;;;28.10;;
59416;SDS011;45222;52.458;20.914;2022-12-07T18:32:08;35.80;;;27.10;;
59416;SDS011;45222;52.458;20.914;2022-12-07T18:35:53;22.30;;;11.00;;
59416;SDS011;45222;52.458;20.914;2022-12-07T18:39:41;18.30;;;15.60;;
59416;SDS011;45222;52.458;20.914;2022-12-07T18:43:28;15.70;;;8.40;;
59416;SDS011;45222;52.458;20.914;2022-12-07T18:47:13;24.70;;;16.30;;
59416;SDS011;45222;52.458;20.914;2022-12-07T18:50:59;18.90;;;14.40;;
59416;SDS011;45222;52.458;20.914;2022-12-07T18:54:46;16.20;;;7.00;;
59416;SDS011;45222;52.458;20.914;2022-12-07T18:58:31;18.50;;;8.90;;
59416;SDS011;45222;52.458;20.914;2022-12-07T19:02:16;19.50;;;8.50;;
59416;SDS011;45222;52.458;20.914;2022-12-07T19:06:04;25.60;;;16.00;;
59416;SDS011;45222;52.458;20.914;2022-12-07T19:09:50;21.30;;;14.50;;
59416;SDS011;45222;52.458;20.914;2022-12-07T19:13:34;28.10;;;8.90;;
59416;SDS011;45222;52.458;20.914;2022-12-07T19:17:19;26.90;;;16.00;;
59416;SDS011;45222;52.458;20.914;2022-12-07T19:21:05;21.00;;;15.90;;
59416;SDS011;45222;52.458;20.914;2022-12-07T19:24:50;17.50;;;7.90;;
59416;SDS011;45222;52.458;20.914;2022-12-07T19:28:37;15.50;;;7.50;;
59416;SDS011;45222;52.458;20.914;2022-12-07T19:32:22;22.80;;;15.20;;
59416;SDS011;45222;52.458;20.914;2022-12-07T19:36:08;17.90;;;8.20;;
59416;SDS011;45222;52.458;20.914;2022-12-07T19:39:53;20.90;;;13.10;;
59416;SDS011;45222;52.458;20.914;2022-12-07T19:43:38;19.10;;;13.30;;
59416;SDS011;45222;52.458;20.914;2022-12-07T19:47:23;16.60;;;13.50;;
59416;SDS011;45222;52.458;20.914;2022-12-07T19:51:08;14.70;;;6.50;;
59416;SDS011;45222;52.458;20.914;2022-12-07T19:54:52;13.70;;;5.90;;
59416;SDS011;45222;52.458;20.914;2022-12-07T19:58:37;14.50;;;11.80;;
59416;SDS011;45222;52.458;20.914;2022-12-07T20:02:22;14.40;;;12.30;;
59416;SDS011;45222;52.458;20.914;2022-12-07T20:06:08;15.20;;;12.10;;
59416;SDS011;45222;52.458;20.914;2022-12-07T20:09:54;11.80;;;5.60;;
59416;SDS011;45222;52.458;20.914;2022-12-07T20:13:39;11.20;;;5.70;;
59416;SDS011;45222;52.458;20.914;2022-12-07T20:17:24;11.60;;;5.70;;
59416;SDS011;45222;52.458;20.914;2022-12-07T20:21:08;13.30;;;10.20;;
59416;SDS011;45222;52.458;20.914;2022-12-07T20:24:53;11.50;;;9.20;;
59416;SDS011;45222;52.458;20.914;2022-12-07T20:28:38;11.80;;;8.20;;
59416;SDS011;45222;52.458;20.914;2022-12-07T20:32:28;11.70;;;9.00;;
59416;SDS011;45222;52.458;20.914;2022-12-07T20:36:14;10.90;;;4.40;;
59416;SDS011;45222;52.458;20.914;2022-12-07T20:40:00;10.90;;;5.00;;
59416;SDS011;45222;52.458;20.914;2022-12-07T20:43:45;10.90;;;4.40;;
59416;SDS011;45222;52.458;20.914;2022-12-07T20:47:30;12.00;;;9.30;;
59416;SDS011;45222;52.458;20.914;2022-12-07T20:51:17;13.50;;;9.80;;
59416;SDS011;45222;52.458;20.914;2022-12-07T20:55:02;9.70;;;4.30;;
59416;SDS011;45222;52.458;20.914;2022-12-07T20:58:47;12.40;;;9.30;;
59416;SDS011;45222;52.458;20.914;2022-12-07T21:02:33;9.90;;;4.30;;
59416;SDS011;45222;52.458;20.914;2022-12-07T21:06:17;11.00;;;5.90;;
59416;SDS011;45222;52.458;20.914;2022-12-07T21:10:03;13.50;;;5.80;;
59416;SDS011;45222;52.458;20.914;2022-12-07T21:13:50;11.30;;;8.50;;
59416;SDS011;45222;52.458;20.914;2022-12-07T21:17:35;11.90;;;9.10;;
59416;SDS011;45222;52.458;20.914;2022-12-07T21:21:19;11.30;;;5.00;;
59416;SDS011;45222;52.458;20.914;2022-12-07T21:25:08;10.80;;;4.70;;
59416;SDS011;45222;52.458;20.914;2022-12-07T21:28:53;8.90;;;4.40;;
59416;SDS011;45222;52.458;20.914;2022-12-07T21:32:39;14.10;;;9.30;;
59416;SDS011;45222;52.458;20.914;2022-12-07T21:36:24;11.40;;;4.50;;
59416;SDS011;45222;52.458;20.914;2022-12-07T21:40:10;7.30;;;3.40;;
59416;SDS011;45222;52.458;20.914;2022-12-07T21:43:56;9.50;;;4.10;;
59416;SDS011;45222;52.458;20.914;2022-12-07T21:47:42;10.70;;;4.60;;
59416;SDS011;45222;52.458;20.914;2022-12-07T21:51:27;13.40;;;8.40;;
59416;SDS011;45222;52.458;20.914;2022-12-07T21:55:13;9.10;;;4.00;;
59416;SDS011;45222;52.458;20.914;2022-12-07T21:59:00;12.10;;;8.80;;
59416;SDS011;45222;52.458;20.914;2022-12-07T22:02:46;9.10;;;3.90;;
59416;SDS011;45222;52.458;20.914;2022-12-07T22:06:32;10.80;;;7.00;;
59416;SDS011;45222;52.458;20.914;2022-12-07T22:10:17;9.00;;;3.70;;
59416;SDS011;45222;52.458;20.914;2022-12-07T22:14:10;12.20;;;8.50;;
59416;SDS011;45222;52.458;20.914;2022-12-07T22:18:13;10.50;;;4.40;;
59416;SDS011;45222;52.458;20.914;2022-12-07T22:21:58;12.80;;;8.60;;
59416;SDS011;45222;52.458;20.914;2022-12-07T22:25:43;10.90;;;3.70;;
59416;SDS011;45222;52.458;20.914;2022-12-07T22:29:27;11.60;;;4.80;;
59416;SDS011;45222;52.458;20.914;2022-12-07T22:33:12;12.50;;;5.00;;
59416;SDS011;45222;52.458;20.914;2022-12-07T22:36:58;9.80;;;4.10;;
59416;SDS011;45222;52.458;20.914;2022-12-07T22:40:45;10.70;;;4.60;;
59416;SDS011;45222;52.458;20.914;2022-12-07T22:44:31;13.50;;;8.00;;
59416;SDS011;45222;52.458;20.914;2022-12-07T22:48:16;11.30;;;7.60;;
59416;SDS011;45222;52.458;20.914;2022-12-07T22:52:01;11.50;;;4.50;;
59416;SDS011;45222;52.458;20.914;2022-12-07T22:55:46;11.80;;;4.90;;
59416;SDS011;45222;52.458;20.914;2022-12-07T22:59:31;10.10;;;3.60;;
59416;SDS011;45222;52.458;20.914;2022-12-07T23:03:16;10.10;;;4.00;;